Terminal Aerodrome Forecast
Issued by NWS

Home | Current Version | Previous Version | Text Only | Print | Product List | Glossary On
Versions: 1 2 3 4 5 6 7 8 9 10 11 12 13 14 15 16 17 18
000
FTPA31 PHFO 271139
TAFHLI
TAF
PHLI 271139Z 2712/2812 08011KT P6SM VCSH SCT020 BKN035
      TEMPO 2712/2714 3SM SHRA BR BKN020
     FM271500 31005KT P6SM VCSH SCT025 BKN035
     FM272000 12008KT P6SM SCT025 BKN035
     FM272200 12008KT P6SM VCSH SCT025 BKN035
     FM280500 26005KT P6SM VCSH SCT025 BKN035=

USA.gov is the U.S. government's official web portal to all federal, state and local government web resources and services.